sensor_id;sensor_type;location;lat;lon;timestamp;pressure;altitude;pressure_sealevel;temperature;humidity
4398;BME280;2213;49.720;7.296;2024-02-21T00:01:18;98966.72;;;8.42;100.00
4398;BME280;2213;49.720;7.296;2024-02-21T00:03:48;98968.34;;;8.43;100.00
4398;BME280;2213;49.720;7.296;2024-02-21T00:06:17;98955.03;;;8.46;100.00
4398;BME280;2213;49.720;7.296;2024-02-21T00:08:46;98959.53;;;8.44;100.00
4398;BME280;2213;49.720;7.296;2024-02-21T00:11:14;98954.34;;;8.44;100.00
4398;BME280;2213;49.720;7.296;2024-02-21T00:13:43;98949.81;;;8.46;100.00
4398;BME280;2213;49.720;7.296;2024-02-21T00:16:11;98945.91;;;8.50;100.00
4398;BME280;2213;49.720;7.296;2024-02-21T00:18:43;98931.41;;;8.48;100.00
4398;BME280;2213;49.720;7.296;2024-02-21T00:21:13;98931.91;;;8.51;100.00
4398;BME280;2213;49.720;7.296;2024-02-21T00:23:45;98924.09;;;8.51;100.00
4398;BME280;2213;49.720;7.296;2024-02-21T00:26:15;98930.44;;;8.49;100.00
4398;BME280;2213;49.720;7.296;2024-02-21T00:28:43;98929.91;;;8.45;100.00
4398;BME280;2213;49.720;7.296;2024-02-21T00:31:12;98925.66;;;8.44;100.00
4398;BME280;2213;49.720;7.296;2024-02-21T00:33:40;98909.50;;;8.41;100.00
4398;BME280;2213;49.720;7.296;2024-02-21T00:36:09;98904.16;;;8.42;100.00
4398;BME280;2213;49.720;7.296;2024-02-21T00:38:39;98907.59;;;8.43;100.00
4398;BME280;2213;49.720;7.296;2024-02-21T00:41:07;98910.03;;;8.44;100.00
4398;BME280;2213;49.720;7.296;2024-02-21T00:43:36;98913.16;;;8.48;100.00
4398;BME280;2213;49.720;7.296;2024-02-21T00:46:06;98903.56;;;8.48;100.00
4398;BME280;2213;49.720;7.296;2024-02-21T00:48:34;98908.63;;;8.50;100.00
4398;BME280;2213;49.720;7.296;2024-02-21T00:51:04;98907.78;;;8.49;100.00
4398;BME280;2213;49.720;7.296;2024-02-21T00:53:32;98902.91;;;8.46;100.00
4398;BME280;2213;49.720;7.296;2024-02-21T00:56:02;98883.66;;;8.47;100.00
4398;BME280;2213;49.720;7.296;2024-02-21T00:58:32;98892.16;;;8.49;100.00
4398;BME280;2213;49.720;7.296;2024-02-21T01:01:01;98894.09;;;8.47;100.00
4398;BME280;2213;49.720;7.296;2024-02-21T01:03:30;98895.72;;;8.48;100.00
4398;BME280;2213;49.720;7.296;2024-02-21T01:05:59;98886.25;;;8.47;100.00
4398;BME280;2213;49.720;7.296;2024-02-21T01:08:27;98880.22;;;8.47;100.00
4398;BME280;2213;49.720;7.296;2024-02-21T01:10:56;98880.41;;;8.45;100.00
4398;BME280;2213;49.720;7.296;2024-02-21T01:13:26;98867.38;;;8.45;100.00
4398;BME280;2213;49.720;7.296;2024-02-21T01:15:55;98865.72;;;8.44;100.00
4398;BME280;2213;49.720;7.296;2024-02-21T01:18:23;98851.53;;;8.39;100.00
4398;BME280;2213;49.720;7.296;2024-02-21T01:20:52;98843.19;;;8.35;100.00
4398;BME280;2213;49.720;7.296;2024-02-21T01:23:20;98850.66;;;8.30;100.00
4398;BME280;2213;49.720;7.296;2024-02-21T01:25:49;98866.78;;;8.34;100.00
4398;BME280;2213;49.720;7.296;2024-02-21T01:28:18;98871.19;;;8.33;100.00
4398;BME280;2213;49.720;7.296;2024-02-21T01:30:50;98864.88;;;8.36;100.00
4398;BME280;2213;49.720;7.296;2024-02-21T01:33:18;98856.22;;;8.35;100.00
4398;BME280;2213;49.720;7.296;2024-02-21T01:35:47;98858.84;;;8.35;100.00
4398;BME280;2213;49.720;7.296;2024-02-21T01:38:16;98851.84;;;8.36;100.00
4398;BME280;2213;49.720;7.296;2024-02-21T01:40:45;98841.25;;;8.37;100.00
4398;BME280;2213;49.720;7.296;2024-02-21T01:43:20;98832.91;;;8.34;100.00
4398;BME280;2213;49.720;7.296;2024-02-21T01:45:53;98827.88;;;8.32;100.00
4398;BME280;2213;49.720;7.296;2024-02-21T01:48:23;98829.81;;;8.30;100.00
4398;BME280;2213;49.720;7.296;2024-02-21T01:50:54;98824.75;;;8.29;100.00
4398;BME280;2213;49.720;7.296;2024-02-21T01:53:30;98829.88;;;8.21;100.00
4398;BME280;2213;49.720;7.296;2024-02-21T01:55:59;98821.53;;;8.17;100.00
4398;BME280;2213;49.720;7.296;2024-02-21T01:58:29;98807.19;;;8.13;100.00
4398;BME280;2213;49.720;7.296;2024-02-21T02:00:59;98783.75;;;8.13;100.00
4398;BME280;2213;49.720;7.296;2024-02-21T02:03:28;98778.50;;;8.05;100.00
4398;BME280;2213;49.720;7.296;2024-02-21T02:05:57;98780.44;;;8.03;100.00
4398;BME280;2213;49.720;7.296;2024-02-21T02:08:26;98788.84;;;7.97;100.00
4398;BME280;2213;49.720;7.296;2024-02-21T02:10:55;98794.28;;;8.03;100.00
4398;BME280;2213;49.720;7.296;2024-02-21T02:13:23;98797.63;;;7.96;100.00
4398;BME280;2213;49.720;7.296;2024-02-21T02:15:52;98800.53;;;7.93;100.00
4398;BME280;2213;49.720;7.296;2024-02-21T02:18:21;98801.28;;;7.85;100.00
4398;BME280;2213;49.720;7.296;2024-02-21T02:20:50;98796.25;;;7.84;100.00
4398;BME280;2213;49.720;7.296;2024-02-21T02:23:24;98807.75;;;7.81;100.00
4398;BME280;2213;49.720;7.296;2024-02-21T02:25:52;98810.53;;;7.80;100.00
4398;BME280;2213;49.720;7.296;2024-02-21T02:28:22;98797.22;;;7.83;100.00
4398;BME280;2213;49.720;7.296;2024-02-21T02:30:51;98803.06;;;7.85;100.00
4398;BME280;2213;49.720;7.296;2024-02-21T02:33:19;98794.00;;;7.89;100.00
4398;BME280;2213;49.720;7.296;2024-02-21T02:35:48;98785.34;;;7.88;100.00
4398;BME280;2213;49.720;7.296;2024-02-21T02:38:17;98773.69;;;7.92;100.00
4398;BME280;2213;49.720;7.296;2024-02-21T02:40:46;98771.56;;;7.88;100.00
4398;BME280;2213;49.720;7.296;2024-02-21T02:43:15;98756.88;;;7.87;100.00
4398;BME280;2213;49.720;7.296;2024-02-21T02:45:44;98741.78;;;7.90;100.00
4398;BME280;2213;49.720;7.296;2024-02-21T02:48:12;98729.22;;;7.86;100.00
4398;BME280;2213;49.720;7.296;2024-02-21T02:50:41;98731.81;;;7.86;100.00
4398;BME280;2213;49.720;7.296;2024-02-21T02:53:09;98725.66;;;7.87;100.00
4398;BME280;2213;49.720;7.296;2024-02-21T02:55:38;98723.50;;;7.82;100.00
4398;BME280;2213;49.720;7.296;2024-02-21T02:58:08;98716.50;;;7.83;100.00
4398;BME280;2213;49.720;7.296;2024-02-21T03:00:37;98717.25;;;7.75;100.00
4398;BME280;2213;49.720;7.296;2024-02-21T03:03:06;98717.19;;;7.67;100.00
4398;BME280;2213;49.720;7.296;2024-02-21T03:05:35;98706.25;;;7.64;100.00
4398;BME280;2213;49.720;7.296;2024-02-21T03:08:05;98712.16;;;7.66;100.00
4398;BME280;2213;49.720;7.296;2024-02-21T03:10:35;98707.91;;;7.65;100.00
4398;BME280;2213;49.720;7.296;2024-02-21T03:13:04;98715.06;;;7.63;100.00
4398;BME280;2213;49.720;7.296;2024-02-21T03:15:33;98713.94;;;7.65;100.00
4398;BME280;2213;49.720;7.296;2024-02-21T03:18:02;98719.97;;;7.66;100.00
4398;BME280;2213;49.720;7.296;2024-02-21T03:20:31;98710.38;;;7.66;100.00
4398;BME280;2213;49.720;7.296;2024-02-21T03:23:00;98711.84;;;7.69;100.00
4398;BME280;2213;49.720;7.296;2024-02-21T03:25:29;98713.13;;;7.65;100.00
4398;BME280;2213;49.720;7.296;2024-02-21T03:27:57;98719.44;;;7.62;100.00
4398;BME280;2213;49.720;7.296;2024-02-21T03:30:26;98727.09;;;7.64;100.00
4398;BME280;2213;49.720;7.296;2024-02-21T03:32:55;98710.00;;;7.61;100.00
4398;BME280;2213;49.720;7.296;2024-02-21T03:35:24;98713.59;;;7.60;100.00
4398;BME280;2213;49.720;7.296;2024-02-21T03:37:54;98721.41;;;7.60;100.00
4398;BME280;2213;49.720;7.296;2024-02-21T03:40:23;98722.19;;;7.60;100.00
4398;BME280;2213;49.720;7.296;2024-02-21T03:42:52;98714.91;;;7.64;100.00
4398;BME280;2213;49.720;7.296;2024-02-21T03:45:21;98718.31;;;7.65;100.00
4398;BME280;2213;49.720;7.296;2024-02-21T03:47:49;98713.78;;;7.67;100.00
4398;BME280;2213;49.720;7.296;2024-02-21T03:50:19;98690.72;;;7.72;100.00
4398;BME280;2213;49.720;7.296;2024-02-21T03:52:48;98689.75;;;7.73;100.00
4398;BME280;2213;49.720;7.296;2024-02-21T03:55:16;98691.84;;;7.69;100.00
4398;BME280;2213;49.720;7.296;2024-02-21T03:57:45;98699.50;;;7.71;100.00
4398;BME280;2213;49.720;7.296;2024-02-21T04:00:14;98706.00;;;7.67;100.00
4398;BME280;2213;49.720;7.296;2024-02-21T04:02:43;98705.69;;;7.70;100.00
4398;BME280;2213;49.720;7.296;2024-02-21T04:05:11;98704.03;;;7.69;100.00
4398;BME280;2213;49.720;7.296;2024-02-21T04:07:41;98680.47;;;7.70;100.00
4398;BME280;2213;49.720;7.296;2024-02-21T04:10:10;98693.94;;;7.66;100.00
4398;BME280;2213;49.720;7.296;2024-02-21T04:12:38;98683.16;;;7.60;100.00
4398;BME280;2213;49.720;7.296;2024-02-21T04:15:08;98676.03;;;7.63;100.00
4398;BME280;2213;49.720;7.296;2024-02-21T04:17:37;98667.53;;;7.60;100.00
4398;BME280;2213;49.720;7.296;2024-02-21T04:20:13;98653.56;;;7.62;100.00
4398;BME280;2213;49.720;7.296;2024-02-21T04:22:43;98646.06;;;7.58;100.00
4398;BME280;2213;49.720;7.296;2024-02-21T04:25:13;98648.47;;;7.52;100.00
4398;BME280;2213;49.720;7.296;2024-02-21T04:27:41;98650.38;;;7.50;100.00
4398;BME280;2213;49.720;7.296;2024-02-21T04:30:11;98651.69;;;7.46;100.00
4398;BME280;2213;49.720;7.296;2024-02-21T04:32:39;98652.34;;;7.48;100.00
4398;BME280;2213;49.720;7.296;2024-02-21T04:35:08;98659.84;;;7.51;100.00
4398;BME280;2213;49.720;7.296;2024-02-21T04:37:37;98657.41;;;7.49;100.00
4398;BME280;2213;49.720;7.296;2024-02-21T04:40:09;98648.56;;;7.42;100.00
4398;BME280;2213;49.720;7.296;2024-02-21T04:42:38;98656.28;;;7.52;100.00
4398;BME280;2213;49.720;7.296;2024-02-21T04:45:08;98650.56;;;7.48;100.00
4398;BME280;2213;49.720;7.296;2024-02-21T04:47:36;98648.09;;;7.47;100.00
4398;BME280;2213;49.720;7.296;2024-02-21T04:50:06;98638.50;;;7.47;100.00
4398;BME280;2213;49.720;7.296;2024-02-21T04:52:35;98644.34;;;7.41;100.00
4398;BME280;2213;49.720;7.296;2024-02-21T04:55:04;98640.97;;;7.49;100.00
4398;BME280;2213;49.720;7.296;2024-02-21T04:57:34;98640.78;;;7.42;100.00
4398;BME280;2213;49.720;7.296;2024-02-21T05:00:04;98640.47;;;7.45;100.00
4398;BME280;2213;49.720;7.296;2024-02-21T05:02:32;98638.81;;;7.44;100.00
4398;BME280;2213;49.720;7.296;2024-02-21T05:05:01;98642.06;;;7.46;100.00
4398;BME280;2213;49.720;7.296;2024-02-21T05:07:30;98638.69;;;7.46;100.00
4398;BME280;2213;49.720;7.296;2024-02-21T05:09:58;98641.09;;;7.47;100.00
4398;BME280;2213;49.720;7.296;2024-02-21T05:12:27;98637.78;;;7.37;100.00
4398;BME280;2213;49.720;7.296;2024-02-21T05:14:58;98633.63;;;7.44;100.00
4398;BME280;2213;49.720;7.296;2024-02-21T05:17:27;98642.38;;;7.43;100.00
4398;BME280;2213;49.720;7.296;2024-02-21T05:19:55;98640.78;;;7.42;100.00
4398;BME280;2213;49.720;7.296;2024-02-21T05:22:24;98632.66;;;7.45;100.00
4398;BME280;2213;49.720;7.296;2024-02-21T05:24:53;98633.25;;;7.39;100.00
4398;BME280;2213;49.720;7.296;2024-02-21T05:27:21;98628.03;;;7.39;100.00
4398;BME280;2213;49.720;7.296;2024-02-21T05:29:50;98625.16;;;7.42;100.00
4398;BME280;2213;49.720;7.296;2024-02-21T05:32:20;98631.16;;;7.43;100.00
4398;BME280;2213;49.720;7.296;2024-02-21T05:34:49;98639.13;;;7.41;100.00
4398;BME280;2213;49.720;7.296;2024-02-21T05:37:18;98638.16;;;7.42;100.00
4398;BME280;2213;49.720;7.296;2024-02-21T05:39:46;98643.72;;;7.47;100.00
4398;BME280;2213;49.720;7.296;2024-02-21T05:42:15;98639.78;;;7.43;100.00
4398;BME280;2213;49.720;7.296;2024-02-21T05:44:43;98631.78;;;7.37;100.00
4398;BME280;2213;49.720;7.296;2024-02-21T05:47:12;98615.34;;;7.36;100.00
4398;BME280;2213;49.720;7.296;2024-02-21T05:49:44;98617.34;;;7.42;100.00
4398;BME280;2213;49.720;7.296;2024-02-21T05:52:13;98611.13;;;7.35;100.00
4398;BME280;2213;49.720;7.296;2024-02-21T05:54:41;98619.59;;;7.37;100.00
4398;BME280;2213;49.720;7.296;2024-02-21T05:57:10;98614.88;;;7.41;100.00
4398;BME280;2213;49.720;7.296;2024-02-21T05:59:38;98603.97;;;7.37;100.00
4398;BME280;2213;49.720;7.296;2024-02-21T06:02:09;98608.53;;;7.35;100.00
4398;BME280;2213;49.720;7.296;2024-02-21T06:04:38;98601.69;;;7.34;100.00
4398;BME280;2213;49.720;7.296;2024-02-21T06:07:08;98606.22;;;7.32;100.00
4398;BME280;2213;49.720;7.296;2024-02-21T06:09:37;98606.50;;;7.29;100.00
4398;BME280;2213;49.720;7.296;2024-02-21T06:12:06;98603.31;;;7.35;100.00
4398;BME280;2213;49.720;7.296;2024-02-21T06:14:35;98595.81;;;7.32;100.00
4398;BME280;2213;49.720;7.296;2024-02-21T06:17:04;98591.41;;;7.33;100.00
4398;BME280;2213;49.720;7.296;2024-02-21T06:19:33;98588.16;;;7.31;100.00
4398;BME280;2213;49.720;7.296;2024-02-21T06:22:01;98583.59;;;7.33;100.00
4398;BME280;2213;49.720;7.296;2024-02-21T06:24:37;98584.91;;;7.29;100.00
4398;BME280;2213;49.720;7.296;2024-02-21T06:27:06;98587.72;;;7.35;100.00
4398;BME280;2213;49.720;7.296;2024-02-21T06:29:37;98584.91;;;7.29;100.00
4398;BME280;2213;49.720;7.296;2024-02-21T06:32:06;98575.66;;;7.34;100.00
4398;BME280;2213;49.720;7.296;2024-02-21T06:34:35;98575.03;;;7.32;100.00
4398;BME280;2213;49.720;7.296;2024-02-21T06:37:03;98576.94;;;7.30;100.00
4398;BME280;2213;49.720;7.296;2024-02-21T06:39:32;98576.50;;;7.35;100.00
4398;BME280;2213;49.720;7.296;2024-02-21T06:42:02;98566.91;;;7.35;100.00
4398;BME280;2213;49.720;7.296;2024-02-21T06:44:31;98575.66;;;7.34;100.00
4398;BME280;2213;49.720;7.296;2024-02-21T06:47:03;98575.34;;;7.37;100.00
4398;BME280;2213;49.720;7.296;2024-02-21T06:49:32;98577.31;;;7.35;100.00
4398;BME280;2213;49.720;7.296;2024-02-21T06:52:00;98580.41;;;7.39;100.00
4398;BME280;2213;49.720;7.296;2024-02-21T06:54:29;98571.63;;;7.40;100.00
4398;BME280;2213;49.720;7.296;2024-02-21T06:56:58;98571.16;;;7.44;100.00
4398;BME280;2213;49.720;7.296;2024-02-21T06:59:28;98571.81;;;7.46;100.00
4398;BME280;2213;49.720;7.296;2024-02-21T07:01:56;98579.63;;;7.46;100.00
4398;BME280;2213;49.720;7.296;2024-02-21T07:04:25;98577.84;;;7.47;100.00
4398;BME280;2213;49.720;7.296;2024-02-21T07:06:54;98582.72;;;7.50;100.00
4398;BME280;2213;49.720;7.296;2024-02-21T07:09:22;98581.56;;;7.44;100.00
4398;BME280;2213;49.720;7.296;2024-02-21T07:11:51;98582.91;;;7.48;100.00
4398;BME280;2213;49.720;7.296;2024-02-21T07:14:19;98572.50;;;7.48;100.00
4398;BME280;2213;49.720;7.296;2024-02-21T07:16:49;98572.31;;;7.42;100.00
4398;BME280;2213;49.720;7.296;2024-02-21T07:19:17;98565.66;;;7.47;100.00
4398;BME280;2213;49.720;7.296;2024-02-21T07:21:46;98564.31;;;7.43;100.00
4398;BME280;2213;49.720;7.296;2024-02-21T07:24:15;98569.22;;;7.46;100.00
4398;BME280;2213;49.720;7.296;2024-02-21T07:26:43;98567.28;;;7.48;100.00
4398;BME280;2213;49.720;7.296;2024-02-21T07:29:12;98563.22;;;7.46;100.00
4398;BME280;2213;49.720;7.296;2024-02-21T07:31:42;98562.53;;;7.44;100.00
4398;BME280;2213;49.720;7.296;2024-02-21T07:34:12;98561.28;;;7.48;100.00
4398;BME280;2213;49.720;7.296;2024-02-21T07:36:42;98551.69;;;7.48;100.00
4398;BME280;2213;49.720;7.296;2024-02-21T07:39:11;98552.50;;;7.49;100.00
4398;BME280;2213;49.720;7.296;2024-02-21T07:41:40;98542.75;;;7.51;100.00
4398;BME280;2213;49.720;7.296;2024-02-21T07:44:11;98535.00;;;7.59;100.00
4398;BME280;2213;49.720;7.296;2024-02-21T07:46:39;98537.28;;;7.62;100.00
4398;BME280;2213;49.720;7.296;2024-02-21T07:49:08;98538.75;;;7.65;100.00
4398;BME280;2213;49.720;7.296;2024-02-21T07:51:38;98541.66;;;7.62;100.00
4398;BME280;2213;49.720;7.296;2024-02-21T07:54:06;98537.78;;;7.66;100.00
4398;BME280;2213;49.720;7.296;2024-02-21T07:56:39;98540.38;;;7.66;100.00
4398;BME280;2213;49.720;7.296;2024-02-21T07:59:07;98537.78;;;7.66;100.00
4398;BME280;2213;49.720;7.296;2024-02-21T08:01:36;98542.31;;;7.64;100.00
4398;BME280;2213;49.720;7.296;2024-02-21T08:04:04;98548.84;;;7.68;100.00
4398;BME280;2213;49.720;7.296;2024-02-21T08:06:33;98537.97;;;7.72;100.00
4398;BME280;2213;49.720;7.296;2024-02-21T08:09:03;98536.81;;;7.75;100.00
4398;BME280;2213;49.720;7.296;2024-02-21T08:11:31;98538.28;;;7.69;100.00
4398;BME280;2213;49.720;7.296;2024-02-21T08:14:00;98534.53;;;7.72;100.00
4398;BME280;2213;49.720;7.296;2024-02-21T08:16:31;98542.84;;;7.75;100.00
4398;BME280;2213;49.720;7.296;2024-02-21T08:18:59;98534.91;;;7.77;100.00
4398;BME280;2213;49.720;7.296;2024-02-21T08:21:29;98536.50;;;7.78;100.00
4398;BME280;2213;49.720;7.296;2024-02-21T08:23:58;98537.84;;;7.82;100.00
4398;BME280;2213;49.720;7.296;2024-02-21T08:26:28;98540.28;;;7.83;100.00
4398;BME280;2213;49.720;7.296;2024-02-21T08:28:58;98538.97;;;7.79;100.00
4398;BME280;2213;49.720;7.296;2024-02-21T08:31:28;98531.81;;;7.81;100.00
4398;BME280;2213;49.720;7.296;2024-02-21T08:33:58;98531.00;;;7.81;100.00
4398;BME280;2213;49.720;7.296;2024-02-21T08:36:30;98518.66;;;7.83;100.00
4398;BME280;2213;49.720;7.296;2024-02-21T08:39:00;98518.50;;;7.84;100.00
4398;BME280;2213;49.720;7.296;2024-02-21T08:41:32;98509.97;;;7.74;100.00
4398;BME280;2213;49.720;7.296;2024-02-21T08:44:22;98500.38;;;7.75;100.00
4398;BME280;2213;49.720;7.296;2024-02-21T08:46:53;98498.13;;;7.80;100.00
4398;BME280;2213;49.720;7.296;2024-02-21T08:49:22;98496.19;;;7.82;100.00
4398;BME280;2213;49.720;7.296;2024-02-21T08:52:00;98491.47;;;7.85;100.00
4398;BME280;2213;49.720;7.296;2024-02-21T08:54:29;98491.97;;;7.89;100.00
4398;BME280;2213;49.720;7.296;2024-02-21T08:56:59;98484.66;;;7.92;100.00
4398;BME280;2213;49.720;7.296;2024-02-21T08:59:28;98482.22;;;7.99;100.00
4398;BME280;2213;49.720;7.296;2024-02-21T09:01:56;98484.34;;;8.03;100.00
4398;BME280;2213;49.720;7.296;2024-02-21T09:04:25;98486.16;;;8.03;100.00
4398;BME280;2213;49.720;7.296;2024-02-21T09:06:53;98479.16;;;8.03;100.00
4398;BME280;2213;49.720;7.296;2024-02-21T09:09:22;98481.91;;;8.02;100.00
4398;BME280;2213;49.720;7.296;2024-02-21T09:11:54;98462.56;;;8.04;100.00
4398;BME280;2213;49.720;7.296;2024-02-21T09:14:24;98459.31;;;8.10;100.00
4398;BME280;2213;49.720;7.296;2024-02-21T09:16:53;98464.19;;;8.14;100.00
4398;BME280;2213;49.720;7.296;2024-02-21T09:19:23;98461.75;;;8.04;100.00
4398;BME280;2213;49.720;7.296;2024-02-21T09:21:52;98450.53;;;8.12;100.00
4398;BME280;2213;49.720;7.296;2024-02-21T09:24:20;98455.91;;;8.18;100.00
4398;BME280;2213;49.720;7.296;2024-02-21T09:26:49;98447.75;;;8.21;100.00
4398;BME280;2213;49.720;7.296;2024-02-21T09:29:18;98447.91;;;8.28;100.00
4398;BME280;2213;49.720;7.296;2024-02-21T09:31:52;98445.84;;;8.31;100.00
4398;BME280;2213;49.720;7.296;2024-02-21T09:34:20;98445.19;;;8.37;100.00
4398;BME280;2213;49.720;7.296;2024-02-21T09:36:49;98429.22;;;8.40;100.00
4398;BME280;2213;49.720;7.296;2024-02-21T09:39:18;98431.34;;;8.45;100.00
4398;BME280;2213;49.720;7.296;2024-02-21T09:41:53;98417.81;;;8.49;100.00
4398;BME280;2213;49.720;7.296;2024-02-21T09:44:24;98420.72;;;8.54;100.00
4398;BME280;2213;49.720;7.296;2024-02-21T09:47:04;98416.19;;;8.56;100.00
4398;BME280;2213;49.720;7.296;2024-02-21T09:49:35;98418.78;;;8.56;100.00
4398;BME280;2213;49.720;7.296;2024-02-21T09:52:07;98423.19;;;8.56;100.00
4398;BME280;2213;49.720;7.296;2024-02-21T09:54:36;98416.19;;;8.56;100.00
4398;BME280;2213;49.720;7.296;2024-02-21T09:57:05;98413.41;;;8.58;100.00
4398;BME280;2213;49.720;7.296;2024-02-21T09:59:34;98413.25;;;8.59;100.00
4398;BME280;2213;49.720;7.296;2024-02-21T10:02:05;98404.75;;;8.57;100.00
4398;BME280;2213;49.720;7.296;2024-02-21T10:04:34;98412.56;;;8.66;100.00
4398;BME280;2213;49.720;7.296;2024-02-21T10:07:04;98402.16;;;8.57;100.00
4398;BME280;2213;49.720;7.296;2024-02-21T10:09:32;98392.06;;;8.63;100.00
4398;BME280;2213;49.720;7.296;2024-02-21T10:12:08;98392.38;;;8.68;100.00
4398;BME280;2213;49.720;7.296;2024-02-21T10:14:38;98393.38;;;8.67;100.00
4398;BME280;2213;49.720;7.296;2024-02-21T10:17:16;98387.81;;;8.70;100.00
4398;BME280;2213;49.720;7.296;2024-02-21T10:19:46;98387.81;;;8.70;100.00
4398;BME280;2213;49.720;7.296;2024-02-21T10:22:17;98386.66;;;8.72;100.00
4398;BME280;2213;49.720;7.296;2024-02-21T10:24:47;98379.03;;;8.71;100.00
4398;BME280;2213;49.720;7.296;2024-02-21T10:27:16;98381.16;;;8.67;100.00
4398;BME280;2213;49.720;7.296;2024-02-21T10:29:49;98375.06;;;8.75;100.00
4398;BME280;2213;49.720;7.296;2024-02-21T10:32:20;98372.94;;;8.78;100.00
4398;BME280;2213;49.720;7.296;2024-02-21T10:34:50;98370.81;;;8.82;100.00
4398;BME280;2213;49.720;7.296;2024-02-21T10:37:28;98364.47;;;8.84;100.00
4398;BME280;2213;49.720;7.296;2024-02-21T10:39:57;98363.31;;;8.87;100.00
4398;BME280;2213;49.720;7.296;2024-02-21T10:42:57;98357.59;;;8.91;100.00
4398;BME280;2213;49.720;7.296;2024-02-21T10:45:30;98351.88;;;8.96;100.00
4398;BME280;2213;49.720;7.296;2024-02-21T10:48:11;98355.94;;;8.98;100.00
4398;BME280;2213;49.720;7.296;2024-02-21T10:50:56;98354.78;;;9.01;100.00
4398;BME280;2213;49.720;7.296;2024-02-21T10:53:41;98337.81;;;9.05;100.00
4398;BME280;2213;49.720;7.296;2024-02-21T10:56:26;98340.59;;;9.03;100.00
4398;BME280;2213;49.720;7.296;2024-02-21T10:58:58;98348.25;;;9.05;100.00
4398;BME280;2213;49.720;7.296;2024-02-21T11:01:29;98350.41;;;9.01;100.00
4398;BME280;2213;49.720;7.296;2024-02-21T11:04:03;98337.63;;;9.06;100.00
4398;BME280;2213;49.720;7.296;2024-02-21T11:06:34;98347.41;;;9.13;100.00
4398;BME280;2213;49.720;7.296;2024-02-21T11:09:05;98334.84;;;9.16;100.00
4398;BME280;2213;49.720;7.296;2024-02-21T11:11:35;98331.22;;;9.17;100.00
4398;BME280;2213;49.720;7.296;2024-02-21T11:14:09;98324.53;;;9.23;100.00
4398;BME280;2213;49.720;7.296;2024-02-21T11:16:40;98324.69;;;9.21;100.00
4398;BME280;2213;49.720;7.296;2024-02-21T11:19:20;98320.41;;;9.28;100.00
4398;BME280;2213;49.720;7.296;2024-02-21T11:21:50;98319.09;;;9.32;100.00
4398;BME280;2213;49.720;7.296;2024-02-21T11:24:29;98307.03;;;9.31;100.00
4398;BME280;2213;49.720;7.296;2024-02-21T11:27:09;98304.75;;;9.28;100.00
4398;BME280;2213;49.720;7.296;2024-02-21T11:29:43;98305.22;;;9.32;100.00
4398;BME280;2213;49.720;7.296;2024-02-21T11:32:14;98309.28;;;9.34;100.00
4398;BME280;2213;49.720;7.296;2024-02-21T11:34:55;98298.50;;;9.37;100.00
4398;BME280;2213;49.720;7.296;2024-02-21T11:37:25;98295.88;;;9.37;100.00
4398;BME280;2213;49.720;7.296;2024-02-21T11:39:55;98293.28;;;9.37;100.00
4398;BME280;2213;49.720;7.296;2024-02-21T11:42:26;98277.63;;;9.37;100.00
4398;BME280;2213;49.720;7.296;2024-02-21T11:44:55;98283.50;;;9.39;100.00
4398;BME280;2213;49.720;7.296;2024-02-21T11:47:25;98278.06;;;9.41;100.00
4398;BME280;2213;49.720;7.296;2024-02-21T11:49:58;98269.63;;;9.39;100.00
4398;BME280;2213;49.720;7.296;2024-02-21T11:52:27;98263.94;;;9.35;100.00
4398;BME280;2213;49.720;7.296;2024-02-21T11:54:56;98256.06;;;9.43;100.00
4398;BME280;2213;49.720;7.296;2024-02-21T11:57:32;98236.47;;;9.47;100.00
4398;BME280;2213;49.720;7.296;2024-02-21T12:00:13;98232.94;;;9.55;100.00
4398;BME280;2213;49.720;7.296;2024-02-21T12:02:42;98229.00;;;9.59;100.00
4398;BME280;2213;49.720;7.296;2024-02-21T12:05:12;98213.69;;;9.56;100.00
4398;BME280;2213;49.720;7.296;2024-02-21T12:07:41;98207.97;;;9.60;100.00
4398;BME280;2213;49.720;7.296;2024-02-21T12:10:10;98203.19;;;9.64;100.00
4398;BME280;2213;49.720;7.296;2024-02-21T12:12:39;98192.91;;;9.63;100.00
4398;BME280;2213;49.720;7.296;2024-02-21T12:15:08;98194.53;;;9.64;100.00
4398;BME280;2213;49.720;7.296;2024-02-21T12:17:37;98168.69;;;9.69;100.00
4398;BME280;2213;49.720;7.296;2024-02-21T12:20:08;98158.91;;;9.71;100.00
4398;BME280;2213;49.720;7.296;2024-02-21T12:22:42;98162.13;;;9.73;100.00
4398;BME280;2213;49.720;7.296;2024-02-21T12:25:22;98163.75;;;9.74;100.00
4398;BME280;2213;49.720;7.296;2024-02-21T12:27:54;98154.94;;;9.75;100.00
4398;BME280;2213;49.720;7.296;2024-02-21T12:30:23;98148.38;;;9.79;100.00
4398;BME280;2213;49.720;7.296;2024-02-21T12:32:51;98157.47;;;9.83;100.00
4398;BME280;2213;49.720;7.296;2024-02-21T12:35:20;98143.25;;;9.85;100.00
4398;BME280;2213;49.720;7.296;2024-02-21T12:37:50;98137.22;;;9.85;100.00
4398;BME280;2213;49.720;7.296;2024-02-21T12:40:18;98127.59;;;9.85;100.00
4398;BME280;2213;49.720;7.296;2024-02-21T12:42:47;98127.84;;;9.90;100.00
4398;BME280;2213;49.720;7.296;2024-02-21T12:45:16;98115.88;;;9.96;100.00
4398;BME280;2213;49.720;7.296;2024-02-21T12:47:44;98121.53;;;9.99;100.00
4398;BME280;2213;49.720;7.296;2024-02-21T12:50:13;98113.50;;;10.01;100.00
4398;BME280;2213;49.720;7.296;2024-02-21T12:52:42;98112.31;;;10.03;100.00
4398;BME280;2213;49.720;7.296;2024-02-21T12:55:12;98089.47;;;10.05;100.00
4398;BME280;2213;49.720;7.296;2024-02-21T12:57:40;98095.13;;;10.09;100.00
4398;BME280;2213;49.720;7.296;2024-02-21T13:00:10;98085.13;;;10.13;100.00
4398;BME280;2213;49.720;7.296;2024-02-21T13:02:39;98092.97;;;10.13;100.00
4398;BME280;2213;49.720;7.296;2024-02-21T13:05:08;98091.00;;;10.15;100.00
4398;BME280;2213;49.720;7.296;2024-02-21T13:07:37;98092.25;;;10.19;100.00
4398;BME280;2213;49.720;7.296;2024-02-21T13:10:07;98080.00;;;10.19;100.00
4398;BME280;2213;49.720;7.296;2024-02-21T13:12:37;98064.69;;;10.16;100.00
4398;BME280;2213;49.720;7.296;2024-02-21T13:15:08;98069.00;;;10.09;100.00
4398;BME280;2213;49.720;7.296;2024-02-21T13:17:39;98058.56;;;10.09;100.00
4398;BME280;2213;49.720;7.296;2024-02-21T13:20:10;98061.44;;;10.14;100.00
4398;BME280;2213;49.720;7.296;2024-02-21T13:22:39;98065.50;;;10.17;100.00
4398;BME280;2213;49.720;7.296;2024-02-21T13:25:08;98049.03;;;10.16;100.00
4398;BME280;2213;49.720;7.296;2024-02-21T13:27:39;98051.50;;;10.24;100.00
4398;BME280;2213;49.720;7.296;2024-02-21T13:30:09;98051.88;;;10.21;100.00
4398;BME280;2213;49.720;7.296;2024-02-21T13:32:38;98049.03;;;10.16;100.00
4398;BME280;2213;49.720;7.296;2024-02-21T13:35:08;98047.41;;;10.15;100.00
4398;BME280;2213;49.720;7.296;2024-02-21T13:37:39;98030.09;;;10.14;100.00